Карточка аэропорта UMMS

Внимание!
Информация на этой странице в стадии наполнения.
Если вы не увидели какой-то информации, или заметили неточность - пожалуйста сообщите нам!
Спасибо!
Команда RU-STAFF
Название аэропортаMinsk 2
Название аэропорта (англ.)Minsk 2
Превышение681 ft. (207.6 m.)
Координаты53°52.95', 28°1.848'
Высота перехода6000 ft
Эшелон переходаFL80; QNH<977hPa - FL90
Коды ответчика0020−0027; 6230-6277
Зона ОрВДМинск РПИ (UMMV)
Данные METARUMMS 281900Z 13003MPS 9999 OVC005 M02/M02 Q1030 NOSIG RMK QBB170
Проноз погоды (TAF)UMMS 281700Z 2818/2918 14006MPS 5000 -SN BR BKN005 TEMPO 2818/2909 0300 -FZDZ SHSNRA FZFG OVC002 BKN015CB TEMPO 2909/2918 16005G10MPS 1200 -FZDZ SHSNRA BKN015CB
NOTAMshow/hide NOTAM
AWOS   TABLE

Информация о ВПП

ВПП Длина ВПП (м.) Покрытие Курс ВПП Частота ILS
13L3700Цементобетон130110.7
31R3700Цементобетон310110.1

Диспетчерские позиции

Позывной Наименование органа УВД Частота
UMMS_APPMinsk Approach125.900
UMMS_GNDMinsk Ground129.950
UMMS_R_APPMinsk Radar125.250
UMMS_TWRMinsk Tower130.400



Спутниковое изображение